sensor_id;sensor_type;location;lat;lon;timestamp;pressure;altitude;pressure_sealevel;temperature;humidity
71621;BME280;59471;42.254;23.102;2023-05-16T00:00:13;95534.84;;;12.90;92.24
71621;BME280;59471;42.254;23.102;2023-05-16T00:02:39;95541.47;;;12.79;92.52
71621;BME280;59471;42.254;23.102;2023-05-16T00:05:05;95537.25;;;12.91;92.70
71621;BME280;59471;42.254;23.102;2023-05-16T00:07:41;95522.72;;;13.02;91.76
71621;BME280;59471;42.254;23.102;2023-05-16T00:10:08;95519.69;;;13.05;91.41
71621;BME280;59471;42.254;23.102;2023-05-16T00:12:34;95519.47;;;13.07;90.75
71621;BME280;59471;42.254;23.102;2023-05-16T00:15:02;95506.13;;;12.95;92.14
71621;BME280;59471;42.254;23.102;2023-05-16T00:17:32;95506.50;;;12.85;92.74
71621;BME280;59471;42.254;23.102;2023-05-16T00:19:59;95503.72;;;13.00;91.88
71621;BME280;59471;42.254;23.102;2023-05-16T00:22:26;95502.06;;;12.86;91.85
71621;BME280;59471;42.254;23.102;2023-05-16T00:24:52;95485.69;;;12.84;92.48
71621;BME280;59471;42.254;23.102;2023-05-16T00:27:18;95480.22;;;12.92;91.61
71621;BME280;59471;42.254;23.102;2023-05-16T00:29:43;95487.53;;;13.03;91.04
71621;BME280;59471;42.254;23.102;2023-05-16T00:32:09;95479.44;;;12.91;92.40
71621;BME280;59471;42.254;23.102;2023-05-16T00:34:35;95471.53;;;12.85;92.04
71621;BME280;59471;42.254;23.102;2023-05-16T00:37:00;95478.63;;;12.91;91.76
71621;BME280;59471;42.254;23.102;2023-05-16T00:39:26;95477.00;;;12.90;91.90
71621;BME280;59471;42.254;23.102;2023-05-16T00:41:52;95474.78;;;13.00;91.06
71621;BME280;59471;42.254;23.102;2023-05-16T00:44:17;95484.28;;;13.14;90.79
71621;BME280;59471;42.254;23.102;2023-05-16T00:46:43;95481.47;;;13.09;90.54
71621;BME280;59471;42.254;23.102;2023-05-16T00:49:09;95474.59;;;13.08;90.84
71621;BME280;59471;42.254;23.102;2023-05-16T00:51:36;95475.81;;;13.12;90.26
71621;BME280;59471;42.254;23.102;2023-05-16T00:54:04;95478.22;;;12.94;90.50
71621;BME280;59471;42.254;23.102;2023-05-16T00:56:30;95475.41;;;13.02;90.51
71621;BME280;59471;42.254;23.102;2023-05-16T00:58:56;95474.56;;;12.95;91.47
71621;BME280;59471;42.254;23.102;2023-05-16T01:01:22;95475.78;;;12.79;92.38
71621;BME280;59471;42.254;23.102;2023-05-16T01:03:49;95479.03;;;12.81;92.38
71621;BME280;59471;42.254;23.102;2023-05-16T01:06:15;95476.94;;;12.63;93.15
71621;BME280;59471;42.254;23.102;2023-05-16T01:08:40;95470.72;;;12.78;93.01
71621;BME280;59471;42.254;23.102;2023-05-16T01:16:53;95489.94;;;12.78;91.95
71621;BME280;59471;42.254;23.102;2023-05-16T01:25:04;95488.44;;;12.49;93.89
71621;BME280;59471;42.254;23.102;2023-05-16T01:27:30;95468.78;;;12.32;94.45
71621;BME280;59471;42.254;23.102;2023-05-16T01:29:56;95474.22;;;12.23;95.21
71621;BME280;59471;42.254;23.102;2023-05-16T01:32:21;95467.56;;;12.27;94.46
71621;BME280;59471;42.254;23.102;2023-05-16T01:34:49;95473.59;;;12.21;94.87
71621;BME280;59471;42.254;23.102;2023-05-16T01:37:23;95461.13;;;12.37;94.66
71621;BME280;59471;42.254;23.102;2023-05-16T01:40:58;95455.06;;;12.29;94.73
71621;BME280;59471;42.254;23.102;2023-05-16T01:43:13;95455.84;;;12.23;95.04
71621;BME280;59471;42.254;23.102;2023-05-16T01:45:46;95458.09;;;12.33;94.88
71621;BME280;59471;42.254;23.102;2023-05-16T01:48:26;95459.91;;;12.33;95.09
71621;BME280;59471;42.254;23.102;2023-05-16T01:50:56;95463.09;;;12.21;95.54
71621;BME280;59471;42.254;23.102;2023-05-16T01:53:30;95460.25;;;12.16;95.32
71621;BME280;59471;42.254;23.102;2023-05-16T01:56:00;95463.72;;;12.23;95.17
71621;BME280;59471;42.254;23.102;2023-05-16T01:58:28;95469.97;;;12.29;95.24
71621;BME280;59471;42.254;23.102;2023-05-16T02:01:01;95459.47;;;12.22;94.73
71621;BME280;59471;42.254;23.102;2023-05-16T02:03:29;95454.84;;;12.24;95.64
71621;BME280;59471;42.254;23.102;2023-05-16T02:05:56;95438.94;;;12.46;94.56
71621;BME280;59471;42.254;23.102;2023-05-16T02:08:25;95449.00;;;12.36;94.58
71621;BME280;59471;42.254;23.102;2023-05-16T02:10:52;95437.66;;;12.28;95.97
71621;BME280;59471;42.254;23.102;2023-05-16T02:13:18;95445.81;;;12.47;94.44
71621;BME280;59471;42.254;23.102;2023-05-16T02:15:44;95439.38;;;12.56;94.34
71621;BME280;59471;42.254;23.102;2023-05-16T02:18:09;95440.41;;;12.68;93.48
71621;BME280;59471;42.254;23.102;2023-05-16T02:20:35;95442.81;;;12.63;93.73
71621;BME280;59471;42.254;23.102;2023-05-16T02:23:01;95441.97;;;12.43;94.58
71621;BME280;59471;42.254;23.102;2023-05-16T02:25:27;95450.50;;;12.71;93.12
71621;BME280;59471;42.254;23.102;2023-05-16T02:27:53;95452.13;;;12.72;92.83
71621;BME280;59471;42.254;23.102;2023-05-16T02:30:19;95443.84;;;12.89;91.37
71621;BME280;59471;42.254;23.102;2023-05-16T02:32:45;95448.69;;;12.79;92.39
71621;BME280;59471;42.254;23.102;2023-05-16T02:35:10;95447.25;;;12.76;92.23
71621;BME280;59471;42.254;23.102;2023-05-16T02:37:36;95443.19;;;12.60;92.32
71621;BME280;59471;42.254;23.102;2023-05-16T02:40:03;95433.31;;;12.62;93.46
71621;BME280;59471;42.254;23.102;2023-05-16T02:42:32;95445.44;;;12.63;93.28
71621;BME280;59471;42.254;23.102;2023-05-16T02:44:58;95437.53;;;12.57;93.43
71621;BME280;59471;42.254;23.102;2023-05-16T02:47:23;95435.72;;;12.57;94.02
71621;BME280;59471;42.254;23.102;2023-05-16T02:49:49;95437.16;;;12.66;93.43
71621;BME280;59471;42.254;23.102;2023-05-16T02:52:19;95434.13;;;12.69;93.06
71621;BME280;59471;42.254;23.102;2023-05-16T02:54:45;95420.75;;;12.58;93.17
71621;BME280;59471;42.254;23.102;2023-05-16T02:57:11;95433.53;;;12.67;92.94
71621;BME280;59471;42.254;23.102;2023-05-16T02:59:37;95429.28;;;12.80;92.67
71621;BME280;59471;42.254;23.102;2023-05-16T03:02:02;95417.38;;;12.84;92.48
71621;BME280;59471;42.254;23.102;2023-05-16T03:04:28;95424.41;;;12.70;93.17
71621;BME280;59471;42.254;23.102;2023-05-16T03:06:54;95421.22;;;12.81;93.01
71621;BME280;59471;42.254;23.102;2023-05-16T03:09:20;95414.31;;;12.73;92.79
71621;BME280;59471;42.254;23.102;2023-05-16T03:11:46;95414.75;;;12.70;92.91
71621;BME280;59471;42.254;23.102;2023-05-16T03:14:11;95418.38;;;12.83;93.28
71621;BME280;59471;42.254;23.102;2023-05-16T03:16:37;95422.22;;;12.80;93.06
71621;BME280;59471;42.254;23.102;2023-05-16T03:19:03;95422.41;;;12.72;93.54
71621;BME280;59471;42.254;23.102;2023-05-16T03:21:29;95411.91;;;12.85;92.65
71621;BME280;59471;42.254;23.102;2023-05-16T03:23:56;95398.56;;;12.87;92.33
71621;BME280;59471;42.254;23.102;2023-05-16T03:26:23;95403.22;;;12.91;92.74
71621;BME280;59471;42.254;23.102;2023-05-16T03:28:49;95394.94;;;12.88;92.93
71621;BME280;59471;42.254;23.102;2023-05-16T03:31:15;95390.88;;;12.92;92.42
71621;BME280;59471;42.254;23.102;2023-05-16T03:33:41;95393.31;;;12.80;92.84
71621;BME280;59471;42.254;23.102;2023-05-16T03:36:07;95398.75;;;12.85;93.00
71621;BME280;59471;42.254;23.102;2023-05-16T03:38:34;95403.81;;;12.93;93.09
71621;BME280;59471;42.254;23.102;2023-05-16T03:41:00;95404.22;;;12.97;92.44
71621;BME280;59471;42.254;23.102;2023-05-16T03:43:25;95404.41;;;12.89;92.80
71621;BME280;59471;42.254;23.102;2023-05-16T03:45:51;95412.50;;;12.94;92.92
71621;BME280;59471;42.254;23.102;2023-05-16T03:48:16;95416.34;;;12.91;93.36
71621;BME280;59471;42.254;23.102;2023-05-16T03:50:42;95416.75;;;12.82;93.65
71621;BME280;59471;42.254;23.102;2023-05-16T03:53:08;95416.34;;;12.71;94.35
71621;BME280;59471;42.254;23.102;2023-05-16T03:55:34;95416.34;;;12.71;94.83
71621;BME280;59471;42.254;23.102;2023-05-16T03:57:59;95427.25;;;12.68;95.69
71621;BME280;59471;42.254;23.102;2023-05-16T04:00:25;95426.25;;;12.69;96.09
71621;BME280;59471;42.254;23.102;2023-05-16T04:02:51;95427.66;;;12.65;96.01
71621;BME280;59471;42.254;23.102;2023-05-16T04:05:16;95424.00;;;12.73;95.55
71621;BME280;59471;42.254;23.102;2023-05-16T04:07:42;95430.28;;;12.92;94.50
71621;BME280;59471;42.254;23.102;2023-05-16T04:10:08;95421.81;;;13.16;92.36
71621;BME280;59471;42.254;23.102;2023-05-16T04:12:34;95420.38;;;13.20;91.97
71621;BME280;59471;42.254;23.102;2023-05-16T04:15:01;95432.94;;;12.92;93.24
71621;BME280;59471;42.254;23.102;2023-05-16T04:17:28;95423.84;;;12.94;94.20
71621;BME280;59471;42.254;23.102;2023-05-16T04:19:53;95439.81;;;13.06;93.75
71621;BME280;59471;42.254;23.102;2023-05-16T04:22:23;95432.53;;;12.95;94.53
71621;BME280;59471;42.254;23.102;2023-05-16T04:24:49;95414.34;;;13.00;94.50
71621;BME280;59471;42.254;23.102;2023-05-16T04:27:15;95421.81;;;13.03;94.31
71621;BME280;59471;42.254;23.102;2023-05-16T04:29:40;95421.03;;;12.89;95.63
71621;BME280;59471;42.254;23.102;2023-05-16T04:32:06;95411.50;;;12.95;95.34
71621;BME280;59471;42.254;23.102;2023-05-16T04:34:33;95401.19;;;12.93;95.64
71621;BME280;59471;42.254;23.102;2023-05-16T04:37:02;95404.63;;;13.07;93.94
71621;BME280;59471;42.254;23.102;2023-05-16T04:39:29;95405.84;;;12.98;94.56
71621;BME280;59471;42.254;23.102;2023-05-16T04:41:55;95420.22;;;13.09;94.65
71621;BME280;59471;42.254;23.102;2023-05-16T04:44:23;95408.66;;;13.16;94.31
71621;BME280;59471;42.254;23.102;2023-05-16T04:46:52;95405.00;;;13.17;94.31
71621;BME280;59471;42.254;23.102;2023-05-16T04:49:21;95408.66;;;13.30;94.05
71621;BME280;59471;42.254;23.102;2023-05-16T04:51:47;95406.66;;;13.32;93.38
71621;BME280;59471;42.254;23.102;2023-05-16T04:54:13;95399.75;;;13.11;95.57
71621;BME280;59471;42.254;23.102;2023-05-16T04:56:39;95409.44;;;13.23;94.23
71621;BME280;59471;42.254;23.102;2023-05-16T04:59:05;95419.59;;;13.33;93.61
71621;BME280;59471;42.254;23.102;2023-05-16T05:01:30;95422.81;;;13.42;93.54
71621;BME280;59471;42.254;23.102;2023-05-16T05:03:56;95433.34;;;13.35;95.25
71621;BME280;59471;42.254;23.102;2023-05-16T05:06:21;95433.56;;;13.34;94.50
71621;BME280;59471;42.254;23.102;2023-05-16T05:08:47;95434.34;;;13.41;92.95
71621;BME280;59471;42.254;23.102;2023-05-16T05:11:13;95426.03;;;13.57;91.54
71621;BME280;59471;42.254;23.102;2023-05-16T05:13:39;95428.63;;;13.71;91.02
71621;BME280;59471;42.254;23.102;2023-05-16T05:16:05;95431.22;;;13.84;90.33
71621;BME280;59471;42.254;23.102;2023-05-16T05:18:31;95442.31;;;13.93;88.87
71621;BME280;59471;42.254;23.102;2023-05-16T05:20:56;95439.28;;;13.96;89.72
71621;BME280;59471;42.254;23.102;2023-05-16T05:23:22;95432.78;;;13.98;90.50
71621;BME280;59471;42.254;23.102;2023-05-16T05:25:48;95434.25;;;13.87;92.06
71621;BME280;59471;42.254;23.102;2023-05-16T05:28:14;95430.22;;;13.85;92.53
71621;BME280;59471;42.254;23.102;2023-05-16T05:30:39;95412.91;;;14.02;91.87
71621;BME280;59471;42.254;23.102;2023-05-16T05:33:05;95404.03;;;14.03;91.45
71621;BME280;59471;42.254;23.102;2023-05-16T05:35:30;95403.97;;;14.17;91.19
71621;BME280;59471;42.254;23.102;2023-05-16T05:37:56;95400.47;;;14.23;90.51
71621;BME280;59471;42.254;23.102;2023-05-16T05:40:21;95406.69;;;14.35;90.24
71621;BME280;59471;42.254;23.102;2023-05-16T05:42:47;95405.44;;;14.44;89.88
71621;BME280;59471;42.254;23.102;2023-05-16T05:45:14;95406.22;;;14.51;89.79
71621;BME280;59471;42.254;23.102;2023-05-16T05:47:40;95405.28;;;14.71;88.90
71621;BME280;59471;42.254;23.102;2023-05-16T05:50:06;95400.25;;;14.94;88.21
71621;BME280;59471;42.254;23.102;2023-05-16T05:52:33;95404.38;;;15.09;86.53
71621;BME280;59471;42.254;23.102;2023-05-16T05:54:58;95402.81;;;15.26;83.33
71621;BME280;59471;42.254;23.102;2023-05-16T05:57:24;95388.38;;;15.03;84.35
71621;BME280;59471;42.254;23.102;2023-05-16T05:59:50;95382.69;;;15.06;83.23
71621;BME280;59471;42.254;23.102;2023-05-16T06:02:15;95397.50;;;15.07;84.63
71621;BME280;59471;42.254;23.102;2023-05-16T06:04:41;95396.22;;;14.92;85.36
71621;BME280;59471;42.254;23.102;2023-05-16T06:07:07;95384.31;;;15.07;84.22
71621;BME280;59471;42.254;23.102;2023-05-16T06:09:32;95377.69;;;14.98;85.46
71621;BME280;59471;42.254;23.102;2023-05-16T06:11:58;95375.63;;;15.00;84.48
71621;BME280;59471;42.254;23.102;2023-05-16T06:14:24;95368.16;;;14.97;84.48
71621;BME280;59471;42.254;23.102;2023-05-16T06:16:50;95381.25;;;15.11;84.16
71621;BME280;59471;42.254;23.102;2023-05-16T06:19:16;95380.03;;;15.06;84.31
71621;BME280;59471;42.254;23.102;2023-05-16T06:21:42;95381.09;;;15.05;86.10
71621;BME280;59471;42.254;23.102;2023-05-16T06:24:08;95385.22;;;15.38;83.29
71621;BME280;59471;42.254;23.102;2023-05-16T06:26:35;95393.00;;;15.33;83.87
71621;BME280;59471;42.254;23.102;2023-05-16T06:29:00;95386.44;;;15.42;82.59
71621;BME280;59471;42.254;23.102;2023-05-16T06:31:26;95380.84;;;15.32;83.34
71621;BME280;59471;42.254;23.102;2023-05-16T06:33:52;95388.91;;;15.56;82.50
71621;BME280;59471;42.254;23.102;2023-05-16T06:36:17;95385.56;;;15.48;82.68
71621;BME280;59471;42.254;23.102;2023-05-16T06:38:43;95386.28;;;15.56;82.22
71621;BME280;59471;42.254;23.102;2023-05-16T06:41:08;95404.47;;;15.64;82.20
71621;BME280;59471;42.254;23.102;2023-05-16T06:43:33;95409.22;;;15.80;80.67
71621;BME280;59471;42.254;23.102;2023-05-16T06:45:59;95400.84;;;15.83;79.38
71621;BME280;59471;42.254;23.102;2023-05-16T06:48:25;95389.69;;;15.81;79.96
71621;BME280;59471;42.254;23.102;2023-05-16T06:50:50;95402.88;;;15.99;79.19
71621;BME280;59471;42.254;23.102;2023-05-16T06:53:16;95402.72;;;16.13;79.96
71621;BME280;59471;42.254;23.102;2023-05-16T06:55:42;95388.75;;;16.24;78.69
71621;BME280;59471;42.254;23.102;2023-05-16T06:58:08;95391.88;;;16.33;78.13
71621;BME280;59471;42.254;23.102;2023-05-16T07:00:34;95373.81;;;16.18;76.67
71621;BME280;59471;42.254;23.102;2023-05-16T07:03:00;95370.31;;;16.06;78.20
71621;BME280;59471;42.254;23.102;2023-05-16T07:05:25;95361.69;;;16.10;79.75
71621;BME280;59471;42.254;23.102;2023-05-16T07:07:51;95356.41;;;16.10;79.25
71621;BME280;59471;42.254;23.102;2023-05-16T07:10:16;95355.50;;;16.05;78.35
71621;BME280;59471;42.254;23.102;2023-05-16T07:12:42;95369.06;;;16.20;79.02
71621;BME280;59471;42.254;23.102;2023-05-16T07:15:08;95358.75;;;16.18;78.76
71621;BME280;59471;42.254;23.102;2023-05-16T07:17:34;95359.25;;;16.27;78.84
71621;BME280;59471;42.254;23.102;2023-05-16T07:19:59;95356.16;;;16.30;78.24
71621;BME280;59471;42.254;23.102;2023-05-16T07:22:25;95358.00;;;16.41;78.12
71621;BME280;59471;42.254;23.102;2023-05-16T07:24:50;95353.81;;;16.52;76.77
71621;BME280;59471;42.254;23.102;2023-05-16T07:27:18;95357.50;;;16.63;76.72
71621;BME280;59471;42.254;23.102;2023-05-16T07:29:44;95353.50;;;16.72;75.85
71621;BME280;59471;42.254;23.102;2023-05-16T07:32:10;95358.94;;;16.89;74.99
71621;BME280;59471;42.254;23.102;2023-05-16T07:34:35;95360.00;;;17.00;75.11
71621;BME280;59471;42.254;23.102;2023-05-16T07:37:00;95349.88;;;16.97;74.55
71621;BME280;59471;42.254;23.102;2023-05-16T07:39:26;95340.44;;;17.24;74.66
71621;BME280;59471;42.254;23.102;2023-05-16T07:41:51;95340.78;;;17.40;75.29
71621;BME280;59471;42.254;23.102;2023-05-16T07:44:17;95338.22;;;17.56;74.32
71621;BME280;59471;42.254;23.102;2023-05-16T07:46:43;95325.75;;;17.80;73.50
71621;BME280;59471;42.254;23.102;2023-05-16T07:49:09;95325.63;;;17.75;73.05
71621;BME280;59471;42.254;23.102;2023-05-16T07:51:35;95328.63;;;17.91;73.08
71621;BME280;59471;42.254;23.102;2023-05-16T07:54:00;95336.31;;;17.92;71.87
71621;BME280;59471;42.254;23.102;2023-05-16T07:56:26;95354.28;;;17.90;73.98
71621;BME280;59471;42.254;23.102;2023-05-16T07:58:52;95351.59;;;18.02;73.34
71621;BME280;59471;42.254;23.102;2023-05-16T08:01:18;95351.00;;;18.12;70.99
71621;BME280;59471;42.254;23.102;2023-05-16T08:03:43;95366.84;;;17.95;70.83
71621;BME280;59471;42.254;23.102;2023-05-16T08:06:08;95380.75;;;18.02;72.15
71621;BME280;59471;42.254;23.102;2023-05-16T08:08:34;95383.53;;;18.36;72.02
71621;BME280;59471;42.254;23.102;2023-05-16T08:11:00;95378.50;;;18.51;69.45
71621;BME280;59471;42.254;23.102;2023-05-16T08:13:25;95369.34;;;18.59;70.65
71621;BME280;59471;42.254;23.102;2023-05-16T08:15:51;95353.66;;;18.86;70.93
71621;BME280;59471;42.254;23.102;2023-05-16T08:18:16;95372.84;;;18.93;67.67
71621;BME280;59471;42.254;23.102;2023-05-16T08:20:42;95366.59;;;18.99;68.02
71621;BME280;59471;42.254;23.102;2023-05-16T08:23:08;95368.81;;;19.07;66.72
71621;BME280;59471;42.254;23.102;2023-05-16T08:25:33;95363.28;;;19.09;66.89
71621;BME280;59471;42.254;23.102;2023-05-16T08:27:59;95368.50;;;18.87;67.75
71621;BME280;59471;42.254;23.102;2023-05-16T08:30:26;95356.63;;;18.89;65.53
71621;BME280;59471;42.254;23.102;2023-05-16T08:32:52;95348.72;;;18.78;67.00
71621;BME280;59471;42.254;23.102;2023-05-16T08:35:18;95356.06;;;18.42;69.13
71621;BME280;59471;42.254;23.102;2023-05-16T08:37:43;95348.84;;;18.54;67.70
71621;BME280;59471;42.254;23.102;2023-05-16T08:40:09;95355.13;;;18.65;67.64
71621;BME280;59471;42.254;23.102;2023-05-16T08:42:35;95347.94;;;18.94;68.09
71621;BME280;59471;42.254;23.102;2023-05-16T08:45:02;95331.66;;;19.07;67.60
71621;BME280;59471;42.254;23.102;2023-05-16T08:47:30;95341.78;;;19.10;68.50
71621;BME280;59471;42.254;23.102;2023-05-16T08:49:57;95337.78;;;19.25;65.43
71621;BME280;59471;42.254;23.102;2023-05-16T08:52:26;95339.22;;;19.15;66.12
71621;BME280;59471;42.254;23.102;2023-05-16T08:55:01;95340.84;;;18.99;67.24
71621;BME280;59471;42.254;23.102;2023-05-16T08:57:32;95347.06;;;19.05;67.16
71621;BME280;59471;42.254;23.102;2023-05-16T08:59:59;95349.75;;;19.10;65.64
71621;BME280;59471;42.254;23.102;2023-05-16T09:02:26;95348.38;;;19.25;66.16
71621;BME280;59471;42.254;23.102;2023-05-16T09:04:53;95345.81;;;19.30;67.37
71621;BME280;59471;42.254;23.102;2023-05-16T09:07:19;95340.78;;;19.50;67.33
71621;BME280;59471;42.254;23.102;2023-05-16T09:09:45;95341.63;;;19.73;67.08
71621;BME280;59471;42.254;23.102;2023-05-16T09:12:10;95338.22;;;20.21;66.23
71621;BME280;59471;42.254;23.102;2023-05-16T09:14:36;95334.16;;;20.41;65.32
71621;BME280;59471;42.254;23.102;2023-05-16T09:17:03;95339.34;;;20.52;64.80
71621;BME280;59471;42.254;23.102;2023-05-16T09:19:42;95330.47;;;20.74;63.50
71621;BME280;59471;42.254;23.102;2023-05-16T09:22:10;95332.19;;;20.58;63.76
71621;BME280;59471;42.254;23.102;2023-05-16T09:24:38;95333.03;;;20.64;64.73
71621;BME280;59471;42.254;23.102;2023-05-16T09:27:09;95312.66;;;20.47;63.40
71621;BME280;59471;42.254;23.102;2023-05-16T09:29:35;95311.69;;;20.53;63.75
71621;BME280;59471;42.254;23.102;2023-05-16T09:32:09;95314.56;;;20.79;63.92
71621;BME280;59471;42.254;23.102;2023-05-16T09:34:43;95314.63;;;20.89;63.04
71621;BME280;59471;42.254;23.102;2023-05-16T09:37:10;95304.59;;;21.01;63.65
71621;BME280;59471;42.254;23.102;2023-05-16T09:42:12;95311.00;;;21.00;62.09
71621;BME280;59471;42.254;23.102;2023-05-16T09:44:39;95299.16;;;20.86;62.83
71621;BME280;59471;42.254;23.102;2023-05-16T09:47:05;95288.63;;;21.01;60.67
71621;BME280;59471;42.254;23.102;2023-05-16T09:49:31;95300.69;;;20.77;62.34
71621;BME280;59471;42.254;23.102;2023-05-16T09:52:00;95297.72;;;20.68;61.74
71621;BME280;59471;42.254;23.102;2023-05-16T09:54:33;95301.81;;;20.81;60.53
71621;BME280;59471;42.254;23.102;2023-05-16T09:56:59;95286.72;;;20.59;61.16
71621;BME280;59471;42.254;23.102;2023-05-16T09:59:38;95285.84;;;20.81;62.87
71621;BME280;59471;42.254;23.102;2023-05-16T10:02:06;95286.69;;;20.92;61.59
71621;BME280;59471;42.254;23.102;2023-05-16T10:04:34;95297.19;;;21.09;61.04
71621;BME280;59471;42.254;23.102;2023-05-16T10:07:04;95278.31;;;21.10;61.40
71621;BME280;59471;42.254;23.102;2023-05-16T10:09:32;95286.63;;;21.19;63.33
71621;BME280;59471;42.254;23.102;2023-05-16T10:12:03;95305.16;;;21.46;59.04
71621;BME280;59471;42.254;23.102;2023-05-16T10:14:38;95288.94;;;21.47;59.39
71621;BME280;59471;42.254;23.102;2023-05-16T10:17:06;95292.75;;;21.67;58.71
71621;BME280;59471;42.254;23.102;2023-05-16T10:19:35;95269.09;;;21.28;58.53
71621;BME280;59471;42.254;23.102;2023-05-16T10:22:04;95280.78;;;21.22;60.36
71621;BME280;59471;42.254;23.102;2023-05-16T10:24:47;95285.78;;;21.18;62.54
71621;BME280;59471;42.254;23.102;2023-05-16T10:27:17;95275.97;;;21.24;60.26
71621;BME280;59471;42.254;23.102;2023-05-16T10:29:43;95267.38;;;21.12;60.92
71621;BME280;59471;42.254;23.102;2023-05-16T10:32:10;95269.00;;;21.18;61.50
71621;BME280;59471;42.254;23.102;2023-05-16T10:34:38;95271.28;;;21.36;60.57
71621;BME280;59471;42.254;23.102;2023-05-16T10:37:04;95270.38;;;21.73;57.34
71621;BME280;59471;42.254;23.102;2023-05-16T10:39:31;95274.88;;;21.67;59.62
71621;BME280;59471;42.254;23.102;2023-05-16T10:41:57;95272.97;;;21.58;59.25
71621;BME280;59471;42.254;23.102;2023-05-16T10:44:24;95266.72;;;22.05;60.38
71621;BME280;59471;42.254;23.102;2023-05-16T10:46:50;95263.53;;;21.97;59.93
71621;BME280;59471;42.254;23.102;2023-05-16T10:49:22;95256.69;;;22.32;59.52
71621;BME280;59471;42.254;23.102;2023-05-16T10:52:03;95274.28;;;22.38;58.76
71621;BME280;59471;42.254;23.102;2023-05-16T10:54:38;95273.47;;;22.33;59.75
71621;BME280;59471;42.254;23.102;2023-05-16T10:57:09;95267.84;;;22.19;59.85
71621;BME280;59471;42.254;23.102;2023-05-16T10:59:44;95267.63;;;22.36;59.37
71621;BME280;59471;42.254;23.102;2023-05-16T11:02:40;95283.31;;;22.22;59.63
71621;BME280;59471;42.254;23.102;2023-05-16T11:05:12;95285.94;;;22.02;60.25
71621;BME280;59471;42.254;23.102;2023-05-16T11:07:41;95302.47;;;22.04;59.59
71621;BME280;59471;42.254;23.102;2023-05-16T11:10:09;95301.31;;;21.84;60.36
71621;BME280;59471;42.254;23.102;2023-05-16T11:12:44;95293.06;;;21.33;60.51
71621;BME280;59471;42.254;23.102;2023-05-16T11:15:31;95297.50;;;21.17;60.26
71621;BME280;59471;42.254;23.102;2023-05-16T11:18:06;95300.47;;;21.21;64.86
71621;BME280;59471;42.254;23.102;2023-05-16T11:20:39;95303.56;;;21.08;65.33
71621;BME280;59471;42.254;23.102;2023-05-16T11:25:41;95288.44;;;20.76;67.58
71621;BME280;59471;42.254;23.102;2023-05-16T11:28:07;95289.69;;;21.00;67.38
71621;BME280;59471;42.254;23.102;2023-05-16T11:30:35;95270.56;;;21.09;69.44
71621;BME280;59471;42.254;23.102;2023-05-16T11:33:01;95251.50;;;21.22;64.62
71621;BME280;59471;42.254;23.102;2023-05-16T11:35:26;95255.22;;;21.26;65.72
71621;BME280;59471;42.254;23.102;2023-05-16T11:37:53;95252.50;;;21.68;63.98
71621;BME280;59471;42.254;23.102;2023-05-16T11:40:18;95242.97;;;21.93;65.05
71621;BME280;59471;42.254;23.102;2023-05-16T11:42:45;95247.88;;;22.16;62.46
71621;BME280;59471;42.254;23.102;2023-05-16T11:45:19;95240.88;;;22.15;60.94
71621;BME280;59471;42.254;23.102;2023-05-16T11:47:49;95248.00;;;21.79;60.60
71621;BME280;59471;42.254;23.102;2023-05-16T11:50:17;95243.66;;;21.58;62.85
71621;BME280;59471;42.254;23.102;2023-05-16T11:52:46;95222.16;;;21.90;61.02
71621;BME280;59471;42.254;23.102;2023-05-16T11:55:14;95215.00;;;21.95;63.11
71621;BME280;59471;42.254;23.102;2023-05-16T11:57:41;95215.25;;;22.09;63.75
71621;BME280;59471;42.254;23.102;2023-05-16T12:02:39;95230.66;;;21.71;64.19
71621;BME280;59471;42.254;23.102;2023-05-16T12:05:07;95226.91;;;21.67;63.03
71621;BME280;59471;42.254;23.102;2023-05-16T12:07:34;95242.59;;;21.59;65.15
71621;BME280;59471;42.254;23.102;2023-05-16T12:10:07;95252.88;;;21.97;63.46
71621;BME280;59471;42.254;23.102;2023-05-16T12:12:35;95258.28;;;22.33;62.85
71621;BME280;59471;42.254;23.102;2023-05-16T12:15:05;95283.38;;;22.58;63.06
71621;BME280;59471;42.254;23.102;2023-05-16T12:17:33;95277.22;;;22.73;61.34
71621;BME280;59471;42.254;23.102;2023-05-16T12:20:04;95263.09;;;22.67;63.52
71621;BME280;59471;42.254;23.102;2023-05-16T12:22:31;95265.22;;;22.65;62.67
71621;BME280;59471;42.254;23.102;2023-05-16T12:27:54;95256.16;;;22.56;59.16
71621;BME280;59471;42.254;23.102;2023-05-16T12:30:29;95259.91;;;22.96;62.82
71621;BME280;59471;42.254;23.102;2023-05-16T12:33:07;95264.16;;;22.76;61.02
71621;BME280;59471;42.254;23.102;2023-05-16T12:35:44;95259.56;;;22.10;62.83
71621;BME280;59471;42.254;23.102;2023-05-16T12:38:12;95277.84;;;21.81;62.82
71621;BME280;59471;42.254;23.102;2023-05-16T12:40:40;95270.13;;;21.27;63.12
71621;BME280;59471;42.254;23.102;2023-05-16T12:43:19;95256.22;;;21.10;63.62
71621;BME280;59471;42.254;23.102;2023-05-16T12:45:53;95260.38;;;21.43;65.07
71621;BME280;59471;42.254;23.102;2023-05-16T12:48:21;95257.38;;;21.34;63.44
71621;BME280;59471;42.254;23.102;2023-05-16T12:50:47;95251.56;;;21.37;64.60
71621;BME280;59471;42.254;23.102;2023-05-16T12:53:15;95258.22;;;21.35;65.14
71621;BME280;59471;42.254;23.102;2023-05-16T12:55:42;95267.03;;;21.40;64.39
71621;BME280;59471;42.254;23.102;2023-05-16T12:58:08;95274.50;;;21.38;65.35
71621;BME280;59471;42.254;23.102;2023-05-16T13:00:35;95273.88;;;21.31;66.17
71621;BME280;59471;42.254;23.102;2023-05-16T13:03:02;95285.16;;;21.38;67.12
71621;BME280;59471;42.254;23.102;2023-05-16T13:05:28;95286.19;;;21.37;67.35
71621;BME280;59471;42.254;23.102;2023-05-16T13:07:54;95286.66;;;21.29;66.31
71621;BME280;59471;42.254;23.102;2023-05-16T13:10:19;95283.44;;;21.27;67.58
71621;BME280;59471;42.254;23.102;2023-05-16T13:12:45;95283.97;;;21.24;67.62